Time;durP1;ratioP1;P1;durP2;ratioP2;P2;SDS_P1;SDS_P2;PMS_P1;PMS_P2;Temp;Humidity;BMP_temperature;BMP_pressure;BME280_temperature;BME280_humidity;BME280_pressure;Samples;Min_cycle;Max_cycle;Signal;HPM_P1;HPM_P2
2022/04/26 07:35:50;;;;;;;;;;;;;;;10.46;57.09;101027.25;4983482;28;1896;-96
2022/04/26 07:38:19;;;;;;;;;;;;;;;10.46;57.07;101033.47;4965998;28;1303;-96
2022/04/26 07:40:46;;;;;;;;;;;;;;;10.46;57.04;101029.97;4950520;29;2749;-96
2022/04/26 07:43:12;;;;;;;;;;;;;;;10.45;57.04;101029.13;4963967;29;1237;-96
2022/04/26 15:22:11;;;;;;;;;;;;;;;11.20;56.47;101071.13;4976940;28;1586;-96
2022/04/26 15:35:44;;;;;;;;;;;;;;;11.23;56.51;101068.81;5040336;23;2599;-96
2022/04/26 15:38:12;;;;;;;;;;;;;;;11.24;56.80;101075.88;4968882;28;1976;-96
2022/04/26 15:40:40;;;;;;;;;;;;;;;11.25;56.64;101072.13;4971526;29;1293;-96
2022/04/26 15:43:07;;;;;;;;;;;;;;;11.27;56.70;101069.25;4968226;28;1867;-96
2022/04/26 15:45:33;;;;;;;;;;;;;;;11.28;56.76;101073.59;4970832;29;1279;-96
2022/04/26 15:48:01;;;;;;;;;;;;;;;11.28;56.60;101073.59;4973133;28;1802;-96
2022/04/26 15:50:28;;;;;;;;;;;;;;;11.28;56.56;101074.41;4998976;28;2176;-96
2022/04/26 15:52:58;;;;;;;;;;;;;;;11.30;56.64;101076.91;5009769;28;929;-96
2022/04/26 15:55:25;;;;;;;;;;;;;;;11.31;56.76;101073.16;4996904;28;947;-96
2022/04/26 15:58:08;;;;;;;;;;;;;;;11.32;56.72;101086.44;5227340;23;3711;-96
2022/04/26 16:00:37;;;;;;;;;;;;;;;11.32;56.48;101086.44;4974953;28;1157;-96
2022/04/26 16:03:04;;;;;;;;;;;;;;;11.34;56.50;101095.13;4996561;28;1085;-96
2022/04/26 16:05:33;;;;;;;;;;;;;;;11.34;56.54;101089.75;4977448;28;1073;-96
2022/04/26 16:08:07;;;;;;;;;;;;;;;11.36;56.59;101086.84;4978536;28;1306;-96
2022/04/26 16:31:32;;;;;;;;;;;;;;;11.43;56.89;101094.91;5153844;23;1806;-96
2022/04/26 16:34:24;;;;;;;;;;;;;;;11.43;56.77;101100.31;4996736;28;1850;-96
2022/04/26 16:37:16;;;;;;;;;;;;;;;11.43;57.00;101093.03;5014499;28;1875;-96
2022/04/26 16:40:09;;;;;;;;;;;;;;;11.44;57.01;101102.81;5018172;28;664;-96
2022/04/26 16:43:03;;;;;;;;;;;;;;;11.45;56.91;101100.94;5018152;28;612;-96
2022/04/26 16:45:57;;;;;;;;;;;;;;;11.46;57.15;101105.28;5021072;28;794;-96
2022/04/26 16:48:28;;;;;;;;;;;;;;;11.47;57.10;101101.53;4978617;28;2033;-96
2022/04/26 16:50:55;;;;;;;;;;;;;;;11.48;57.14;101106.72;4987089;28;1221;-96
2022/04/26 16:56:04;;;;;;;;;;;;;;;11.48;57.26;101106.72;4995213;28;1071;-96
2022/04/26 16:58:47;;;;;;;;;;;;;;;11.49;57.28;101102.97;4982528;28;1013;-96
2022/04/26 17:01:19;;;;;;;;;;;;;;;11.50;57.46;101103.81;4993537;28;972;-96
2022/04/26 17:03:50;;;;;;;;;;;;;;;11.50;57.35;101106.50;4995430;28;1420;-96
2022/04/26 17:06:22;;;;;;;;;;;;;;;11.51;57.35;101105.47;4997464;28;1146;-96
2022/04/26 17:08:55;;;;;;;;;;;;;;;11.52;57.46;101115.22;4996339;28;983;-96
2022/04/26 17:16:52;;;;;;;;;;;;;;;11.53;57.49;101112.31;5759525;23;3159;-96
2022/04/26 18:07:24;;;;;;;;;;;;;;;11.58;57.71;101176.41;4996371;28;1201;-96
2022/04/26 18:10:02;;;;;;;;;;;;;;;11.58;57.80;101181.81;4996137;28;1335;-96
2022/04/26 18:12:30;;;;;;;;;;;;;;;11.57;57.72;101174.75;4994800;28;862;-96
2022/04/26 18:14:58;;;;;;;;;;;;;;;11.56;57.93;101183.91;4977434;28;1775;-96
2022/04/26 18:17:26;;;;;;;;;;;;;;;11.57;57.75;101185.56;4980540;28;1962;-97
2022/04/26 18:20:10;;;;;;;;;;;;;;;11.57;57.77;101189.06;4979398;28;1323;-96
2022/04/26 18:22:38;;;;;;;;;;;;;;;11.57;57.69;101190.94;4995158;28;925;-96
2022/04/26 18:25:07;;;;;;;;;;;;;;;11.58;57.70;101192.59;4981811;28;1113;-96
2022/04/26 18:27:46;;;;;;;;;;;;;;;11.57;57.71;101194.47;4995722;28;1003;-96
2022/04/26 18:30:16;;;;;;;;;;;;;;;11.57;57.84;101202.56;4986593;28;1316;-97
2022/04/26 18:32:52;;;;;;;;;;;;;;;11.56;57.80;101208.19;4982048;28;1373;-96
2022/04/26 20:18:41;;;;;;;;;;;;;;;11.30;57.72;101349.28;5049565;22;4623;-96
2022/04/26 20:21:12;;;;;;;;;;;;;;;11.28;57.75;101335.16;4983451;28;5533;-96
2022/04/26 20:23:39;;;;;;;;;;;;;;;11.28;57.70;101344.06;4991832;28;1544;-96
2022/04/26 20:32:18;;;;;;;;;;;;;;;11.24;57.61;101345.53;4974332;28;1149;-96
2022/04/26 20:34:50;;;;;;;;;;;;;;;11.24;57.62;101347.41;4992195;28;1466;-96
2022/04/26 20:37:20;;;;;;;;;;;;;;;11.22;57.60;101352.16;4989571;28;1962;-96
2022/04/26 20:39:57;;;;;;;;;;;;;;;11.22;57.59;101352.16;4994051;28;955;-96
2022/04/26 20:42:29;;;;;;;;;;;;;;;11.20;57.60;101357.72;4978085;28;862;-96
2022/04/26 22:01:35;;;;;;;;;;;;;;;10.85;57.32;101476.44;4981213;28;1388;-96
